Impacts TAF Board
For situational awareness. Not to be used for flight planning purposes.
IDs:

KDTW - Detroit Metro/Wayne, MI, US

Issued at 2320 UTC 26 Jun 2019
Updated at 0252 UTC 27 Jun 2019
Potential Impact None Slight Moderate High
Time<<27/15Z 27/16Z 27/17Z 27/18Z 27/19Z 27/20Z 27/21Z 27/22Z 27/23Z 28/00Z 28/01Z 28/02Z 28/03Z>>
Type PRVL PRVL PRVL PRVL PRVL PRVL PRVL PRVL PRVL PRVL PRVL PRVL PRVL
VIS >6 >6 >6 >6 >6 >6 >6 >6 >6 >6 >6 >6 >6
CIG -- -- -- -- -- -- -- -- -- -- -- -- --
Cover FEW FEW FEW SCT SCT SCT SCT SCT SCT SCT SCT SCT SCT
FltCat VFR VFR VFR VFR VFR VFR VFR VFR VFR VFR VFR VFR VFR
WX -- -- -- -- -- -- -- -- -- -- -- -- --
WDir 170 170 170 190 190 190 190 190 190 190 190 190 190
WSpd 5 5 5 8 8 8 8 8 8 8 8 8 8
WGst -- -- -- -- -- -- -- -- -- -- -- -- --
Raw TAF
KDTW 262320Z 2700/2806 27010KT P6SM SCT250
  FM270200 VRB04KT P6SM SCT250
  FM271400 17005KT P6SM FEW250
  FM271800 19008KT P6SM SCT070


METAR Board
Radar Display
Forecast Discussion
For situational awareness. Not to be used for flight planning purposes.